AZU5612 SBRF-SBSP
Flight info
| Callsign | AZU5612 |
|---|---|
| Flight time | N/A |
| Altitude | 36000 |
| Route | GAVAK UZ30 LOLIP/N0445F380 UZ30 ENTIT |
| Aircraft | A320/M-SDE3FGHIRWY/LB1 |
Departure
| Time | 2026-04-28 18:30 |
|---|---|
| Airport | Recife/Guararapes - Gilberto Freyre International Airport (SBRF) |
Arrival
| Time | N/A |
|---|---|
| Airport | Congonhas–Deputado Freitas Nobre Airport (SBSP) |
| Time | Latitude | Longitude | Altitude | Speed | Heading |
|---|---|---|---|---|---|
| 2026-04-28 18:15 | -8.13089 | -34.91927 | 46 ft | 0 kts | 72° |
| 2026-04-28 18:21 | -8.13092 | -34.91938 | 46 ft | 4 kts | 70° |
| 2026-04-28 18:21 | -8.13102 | -34.91963 | 46 ft | 4 kts | 64° |
| 2026-04-28 18:21 | -8.13115 | -34.91987 | 42 ft | 4 kts | 48° |
| 2026-04-28 18:22 | -8.13134 | -34.92000 | 45 ft | 4 kts | 355° |
| 2026-04-28 18:22 | -8.13139 | -34.92000 | 43 ft | 1 kts | 342° |
| 2026-04-28 18:24 | -8.13134 | -34.92002 | 45 ft | 4 kts | 341° |
| 2026-04-28 18:24 | -8.13117 | -34.92007 | 43 ft | 3 kts | 342° |
| 2026-04-28 18:24 | -8.13025 | -34.92037 | 48 ft | 13 kts | 343° |
| 2026-04-28 18:24 | -8.12945 | -34.92065 | 49 ft | 11 kts | 342° |
| 2026-04-28 18:25 | -8.12875 | -34.92086 | 47 ft | 10 kts | 345° |
| 2026-04-28 18:25 | -8.12810 | -34.92104 | 48 ft | 9 kts | 343° |
| 2026-04-28 18:25 | -8.12755 | -34.92122 | 48 ft | 7 kts | 338° |
| 2026-04-28 18:26 | -8.12649 | -34.92161 | 49 ft | 15 kts | 341° |
| 2026-04-28 18:26 | -8.12535 | -34.92198 | 48 ft | 17 kts | 342° |
| 2026-04-28 18:26 | -8.12426 | -34.92234 | 47 ft | 16 kts | 342° |
| 2026-04-28 18:26 | -8.12309 | -34.92271 | 45 ft | 19 kts | 341° |
| 2026-04-28 18:27 | -8.12184 | -34.92313 | 45 ft | 19 kts | 342° |
| 2026-04-28 18:27 | -8.12059 | -34.92354 | 41 ft | 19 kts | 342° |
| 2026-04-28 18:27 | -8.11940 | -34.92392 | 40 ft | 17 kts | 341° |
| 2026-04-28 18:27 | -8.11836 | -34.92428 | 41 ft | 15 kts | 340° |
| 2026-04-28 18:28 | -8.11742 | -34.92461 | 40 ft | 14 kts | 340° |
| 2026-04-28 18:28 | -8.11661 | -34.92489 | 39 ft | 11 kts | 341° |
| 2026-04-28 18:28 | -8.11597 | -34.92520 | 43 ft | 15 kts | 325° |
| 2026-04-28 18:28 | -8.11484 | -34.92616 | 45 ft | 21 kts | 319° |
| 2026-04-28 18:29 | -8.11476 | -34.92696 | 44 ft | 12 kts | 188° |
| 2026-04-28 18:29 | -8.11522 | -34.92686 | 44 ft | 0 kts | 161° |
| 2026-04-28 18:29 | -8.11604 | -34.92658 | 44 ft | 42 kts | 162° |
| 2026-04-28 18:29 | -8.12111 | -34.92491 | 43 ft | 108 kts | 162° |
| 2026-04-28 18:30 | -8.12988 | -34.92198 | 50 ft | 157 kts | 159° |
| 2026-04-28 18:30 | -8.13687 | -34.91950 | 356 ft | 159 kts | 160° |
| 2026-04-28 18:30 | -8.15095 | -34.91476 | 1191 ft | 159 kts | 162° |
| 2026-04-28 18:30 | -8.16184 | -34.91134 | 1630 ft | 174 kts | 167° |
| 2026-04-28 18:31 | -8.17451 | -34.91324 | 1930 ft | 203 kts | 207° |
| 2026-04-28 18:31 | -8.18445 | -34.92445 | 2229 ft | 234 kts | 243° |
| 2026-04-28 18:31 | -8.19054 | -34.94069 | 2601 ft | 259 kts | 248° |
| 2026-04-28 18:31 | -8.19660 | -34.95803 | 3176 ft | 270 kts | 248° |
| 2026-04-28 18:32 | -8.20283 | -34.97619 | 3916 ft | 275 kts | 248° |
| 2026-04-28 18:32 | -8.20916 | -34.99453 | 4748 ft | 278 kts | 248° |
| 2026-04-28 18:32 | -8.21562 | -35.01306 | 5523 ft | 282 kts | 248° |
| 2026-04-28 18:32 | -8.22228 | -35.03188 | 5845 ft | 285 kts | 248° |
| 2026-04-28 18:33 | -8.22900 | -35.05072 | 5937 ft | 285 kts | 247° |
| 2026-04-28 18:33 | -8.23573 | -35.06954 | 5953 ft | 285 kts | 248° |
| 2026-04-28 18:33 | -8.24246 | -35.08839 | 5961 ft | 285 kts | 248° |
| 2026-04-28 18:33 | -8.24918 | -35.10721 | 5968 ft | 285 kts | 247° |
| 2026-04-28 18:34 | -8.25589 | -35.12608 | 5977 ft | 286 kts | 248° |
| 2026-04-28 18:34 | -8.26261 | -35.14494 | 5983 ft | 285 kts | 247° |
| 2026-04-28 18:34 | -8.27076 | -35.16307 | 5992 ft | 282 kts | 234° |
| 2026-04-28 18:34 | -8.28303 | -35.17884 | 6394 ft | 289 kts | 227° |
| 2026-04-28 18:35 | -8.29572 | -35.19444 | 7348 ft | 287 kts | 228° |
| 2026-04-28 18:35 | -8.30832 | -35.21018 | 8163 ft | 290 kts | 228° |
| 2026-04-28 18:35 | -8.32107 | -35.22618 | 8913 ft | 294 kts | 229° |
| 2026-04-28 18:35 | -8.33398 | -35.24237 | 9632 ft | 298 kts | 229° |
| 2026-04-28 18:36 | -8.34708 | -35.25878 | 10271 ft | 304 kts | 228° |
| 2026-04-28 18:36 | -8.36085 | -35.27600 | 10457 ft | 327 kts | 229° |
| 2026-04-28 18:36 | -8.37560 | -35.29443 | 10739 ft | 344 kts | 229° |
| 2026-04-28 18:36 | -8.39079 | -35.31341 | 11276 ft | 350 kts | 229° |
| 2026-04-28 18:37 | -8.40620 | -35.33267 | 11855 ft | 355 kts | 229° |
| 2026-04-28 18:37 | -8.42185 | -35.35219 | 12451 ft | 359 kts | 229° |
| 2026-04-28 18:37 | -8.43770 | -35.37198 | 13022 ft | 364 kts | 230° |
| 2026-04-28 18:37 | -8.45370 | -35.39197 | 13613 ft | 368 kts | 230° |
| 2026-04-28 18:38 | -8.46992 | -35.41220 | 14126 ft | 372 kts | 230° |
| 2026-04-28 18:38 | -8.48611 | -35.43241 | 14611 ft | 376 kts | 230° |
| 2026-04-28 18:38 | -8.50264 | -35.45308 | 15121 ft | 380 kts | 230° |
| 2026-04-28 18:38 | -8.51931 | -35.47393 | 15619 ft | 383 kts | 229° |
| 2026-04-28 18:39 | -8.53616 | -35.49497 | 16100 ft | 387 kts | 229° |
| 2026-04-28 18:39 | -8.55323 | -35.51627 | 16587 ft | 391 kts | 229° |
| 2026-04-28 18:39 | -8.57044 | -35.53777 | 17067 ft | 394 kts | 229° |
| 2026-04-28 18:39 | -8.58778 | -35.55942 | 17542 ft | 398 kts | 229° |
| 2026-04-28 18:40 | -8.60529 | -35.58130 | 17987 ft | 402 kts | 229° |
| 2026-04-28 18:40 | -8.62293 | -35.60336 | 18416 ft | 405 kts | 229° |
| 2026-04-28 18:40 | -8.64073 | -35.62564 | 18786 ft | 409 kts | 229° |
| 2026-04-28 18:40 | -8.65866 | -35.64806 | 19180 ft | 412 kts | 229° |
| 2026-04-28 18:41 | -8.67674 | -35.67067 | 19575 ft | 415 kts | 229° |
| 2026-04-28 18:41 | -8.69478 | -35.69326 | 19963 ft | 418 kts | 229° |
| 2026-04-28 18:41 | -8.71317 | -35.71633 | 20360 ft | 421 kts | 229° |
| 2026-04-28 18:41 | -8.73171 | -35.73955 | 20778 ft | 424 kts | 228° |
| 2026-04-28 18:42 | -8.75007 | -35.76251 | 21151 ft | 427 kts | 228° |
| 2026-04-28 18:42 | -8.76884 | -35.78599 | 21528 ft | 430 kts | 228° |
| 2026-04-28 18:42 | -8.78768 | -35.80954 | 21851 ft | 433 kts | 228° |
| 2026-04-28 18:42 | -8.80672 | -35.83340 | 22230 ft | 435 kts | 228° |
| 2026-04-28 18:43 | -8.82579 | -35.85730 | 22603 ft | 438 kts | 228° |
| 2026-04-28 18:43 | -8.84497 | -35.88135 | 22956 ft | 441 kts | 228° |
| 2026-04-28 18:43 | -8.86429 | -35.90553 | 23316 ft | 443 kts | 228° |
| 2026-04-28 18:43 | -8.88380 | -35.92991 | 23638 ft | 446 kts | 228° |
| 2026-04-28 18:44 | -8.90335 | -35.95436 | 23952 ft | 448 kts | 228° |
| 2026-04-28 18:44 | -8.94224 | -36.00323 | 24676 ft | 450 kts | 228° |
| 2026-04-28 18:44 | -8.96188 | -36.02793 | 25025 ft | 451 kts | 228° |
| 2026-04-28 18:45 | -8.98158 | -36.05267 | 25364 ft | 452 kts | 228° |
| 2026-04-28 18:45 | -9.00139 | -36.07753 | 25720 ft | 453 kts | 229° |
| 2026-04-28 18:45 | -9.02121 | -36.10238 | 26064 ft | 454 kts | 228° |
| 2026-04-28 18:45 | -9.04110 | -36.12730 | 26380 ft | 455 kts | 228° |
| 2026-04-28 18:46 | -9.06087 | -36.15183 | 26702 ft | 456 kts | 228° |
| 2026-04-28 18:46 | -9.08127 | -36.17656 | 26999 ft | 457 kts | 227° |
| 2026-04-28 18:46 | -9.10185 | -36.20111 | 27303 ft | 458 kts | 227° |
| 2026-04-28 18:46 | -9.12263 | -36.22578 | 27613 ft | 459 kts | 227° |
| 2026-04-28 18:47 | -9.14341 | -36.25044 | 27909 ft | 460 kts | 227° |
| 2026-04-28 18:47 | -9.16413 | -36.27513 | 28210 ft | 461 kts | 227° |
| 2026-04-28 18:47 | -9.18490 | -36.30000 | 28520 ft | 462 kts | 227° |
| 2026-04-28 18:47 | -9.20565 | -36.32497 | 28816 ft | 463 kts | 227° |
| 2026-04-28 18:48 | -9.22640 | -36.34999 | 29103 ft | 465 kts | 227° |
| 2026-04-28 18:48 | -9.24693 | -36.37474 | 29381 ft | 466 kts | 227° |
| 2026-04-28 18:48 | -9.26781 | -36.39989 | 29670 ft | 467 kts | 227° |
| 2026-04-28 18:48 | -9.28875 | -36.42510 | 29938 ft | 468 kts | 227° |
| 2026-04-28 18:49 | -9.30971 | -36.45036 | 30184 ft | 469 kts | 228° |
| 2026-04-28 18:49 | -9.31679 | -36.45889 | 30252 ft | 470 kts | 228° |
| 2026-04-28 18:49 | -9.35187 | -36.50109 | 30620 ft | 472 kts | 227° |
| 2026-04-28 18:49 | -9.37306 | -36.52654 | 30833 ft | 473 kts | 228° |
| 2026-04-28 18:50 | -9.39427 | -36.55206 | 31062 ft | 473 kts | 228° |
| 2026-04-28 18:50 | -9.41541 | -36.57755 | 31374 ft | 472 kts | 228° |
| 2026-04-28 18:50 | -9.43651 | -36.60300 | 31688 ft | 470 kts | 228° |
| 2026-04-28 18:50 | -9.45757 | -36.62839 | 31996 ft | 469 kts | 228° |
| 2026-04-28 18:51 | -9.47854 | -36.65369 | 32300 ft | 468 kts | 228° |
| 2026-04-28 18:51 | -9.49920 | -36.67861 | 32614 ft | 467 kts | 228° |
| 2026-04-28 18:51 | -9.52008 | -36.70380 | 32911 ft | 466 kts | 228° |
| 2026-04-28 18:51 | -9.54092 | -36.72894 | 33216 ft | 465 kts | 228° |
| 2026-04-28 18:52 | -9.56170 | -36.75398 | 33523 ft | 464 kts | 228° |
| 2026-04-28 18:52 | -9.58251 | -36.77904 | 33822 ft | 463 kts | 228° |
| 2026-04-28 18:52 | -9.60324 | -36.80398 | 34113 ft | 463 kts | 228° |
| 2026-04-28 18:52 | -9.62392 | -36.82889 | 34370 ft | 462 kts | 228° |
| 2026-04-28 18:53 | -9.64460 | -36.85387 | 34611 ft | 461 kts | 228° |
| 2026-04-28 18:53 | -9.66520 | -36.87877 | 34841 ft | 461 kts | 228° |
| 2026-04-28 18:53 | -9.68578 | -36.90365 | 35060 ft | 461 kts | 228° |
| 2026-04-28 18:53 | -9.70637 | -36.92850 | 35293 ft | 460 kts | 229° |
| 2026-04-28 18:54 | -9.72692 | -36.95334 | 35516 ft | 459 kts | 228° |
| 2026-04-28 18:54 | -9.74743 | -36.97813 | 35703 ft | 459 kts | 229° |
| 2026-04-28 18:54 | -9.76797 | -37.00295 | 35907 ft | 459 kts | 229° |
| 2026-04-28 18:54 | -9.78851 | -37.02778 | 36006 ft | 459 kts | 229° |
| 2026-04-28 18:55 | -9.82247 | -37.06891 | 36024 ft | 456 kts | 229° |
| 2026-04-28 18:55 | -9.87015 | -37.12650 | 36024 ft | 455 kts | 227° |
| 2026-04-28 18:56 | -9.91759 | -37.16849 | 36021 ft | 453 kts | 215° |
| 2026-04-28 18:56 | -9.96831 | -37.20645 | 36022 ft | 452 kts | 215° |
| 2026-04-28 18:57 | -10.01032 | -37.23797 | 36014 ft | 452 kts | 214° |
| 2026-04-28 18:57 | -10.06093 | -37.27593 | 36012 ft | 452 kts | 216° |
| 2026-04-28 18:58 | -10.11151 | -37.31385 | 36012 ft | 452 kts | 216° |
| 2026-04-28 18:58 | -10.16208 | -37.35179 | 36007 ft | 452 kts | 215° |
| 2026-04-28 18:59 | -10.21270 | -37.38973 | 36007 ft | 452 kts | 215° |
| 2026-04-28 18:59 | -10.26329 | -37.42773 | 36015 ft | 452 kts | 215° |
| 2026-04-28 19:00 | -10.31350 | -37.46547 | 36017 ft | 452 kts | 216° |
| 2026-04-28 19:00 | -10.36399 | -37.50345 | 36018 ft | 452 kts | 214° |
| 2026-04-28 19:01 | -10.41460 | -37.54147 | 36018 ft | 452 kts | 215° |
| 2026-04-28 19:01 | -10.46514 | -37.57947 | 36017 ft | 452 kts | 215° |
| 2026-04-28 19:02 | -10.51566 | -37.61760 | 36021 ft | 452 kts | 214° |
| 2026-04-28 19:02 | -10.56621 | -37.65577 | 36024 ft | 452 kts | 216° |
| 2026-04-28 19:03 | -10.61659 | -37.69390 | 36025 ft | 452 kts | 214° |
| 2026-04-28 19:03 | -10.66662 | -37.73180 | 36026 ft | 452 kts | 214° |
| 2026-04-28 19:04 | -10.71701 | -37.76995 | 36022 ft | 451 kts | 216° |
| 2026-04-28 19:04 | -10.76740 | -37.80810 | 36026 ft | 451 kts | 215° |
| 2026-04-28 19:05 | -10.81790 | -37.84635 | 36026 ft | 451 kts | 215° |
| 2026-04-28 19:05 | -10.86814 | -37.88440 | 36029 ft | 450 kts | 216° |
| 2026-04-28 19:06 | -10.91832 | -37.92244 | 36029 ft | 450 kts | 215° |
| 2026-04-28 19:06 | -10.96850 | -37.96057 | 36028 ft | 450 kts | 214° |
| 2026-04-28 19:07 | -11.01871 | -37.99861 | 36016 ft | 449 kts | 216° |
| 2026-04-28 19:07 | -11.06883 | -38.03668 | 36015 ft | 449 kts | 216° |
| 2026-04-28 19:08 | -11.11894 | -38.07471 | 36015 ft | 449 kts | 214° |
| 2026-04-28 19:08 | -11.16909 | -38.11278 | 36016 ft | 450 kts | 215° |
| 2026-04-28 19:09 | -11.21896 | -38.15075 | 36017 ft | 450 kts | 215° |
| 2026-04-28 19:09 | -11.26912 | -38.18895 | 36017 ft | 450 kts | 215° |
| 2026-04-28 19:10 | -11.31929 | -38.22712 | 36026 ft | 450 kts | 214° |
| 2026-04-28 19:10 | -11.36943 | -38.26532 | 36027 ft | 449 kts | 215° |
| 2026-04-28 19:11 | -11.41953 | -38.30342 | 36029 ft | 449 kts | 216° |
| 2026-04-28 19:11 | -11.46961 | -38.34157 | 36032 ft | 449 kts | 216° |
| 2026-04-28 19:12 | -11.51937 | -38.37953 | 36026 ft | 448 kts | 215° |
| 2026-04-28 19:12 | -11.56927 | -38.41789 | 36025 ft | 449 kts | 216° |
| 2026-04-28 19:13 | -11.61926 | -38.45622 | 36027 ft | 448 kts | 216° |
| 2026-04-28 19:13 | -11.66914 | -38.49450 | 36030 ft | 448 kts | 216° |
| 2026-04-28 19:14 | -11.71876 | -38.53252 | 36031 ft | 448 kts | 216° |
| 2026-04-28 19:14 | -11.76881 | -38.57066 | 36031 ft | 448 kts | 216° |
| 2026-04-28 19:15 | -11.81845 | -38.60845 | 36029 ft | 448 kts | 216° |
| 2026-04-28 19:15 | -11.86002 | -38.64022 | 36033 ft | 448 kts | 216° |
| 2026-04-28 19:16 | -11.91833 | -38.68475 | 36032 ft | 448 kts | 216° |
| 2026-04-28 19:16 | -11.96835 | -38.72289 | 36033 ft | 448 kts | 216° |
| 2026-04-28 19:17 | -12.01838 | -38.76110 | 36037 ft | 448 kts | 216° |
| 2026-04-28 19:17 | -12.06803 | -38.79907 | 36038 ft | 448 kts | 216° |
| 2026-04-28 19:18 | -12.11807 | -38.83737 | 36033 ft | 448 kts | 216° |
| 2026-04-28 19:18 | -12.16811 | -38.87562 | 36032 ft | 448 kts | 216° |
| 2026-04-28 19:19 | -12.21798 | -38.91381 | 36035 ft | 448 kts | 216° |
| 2026-04-28 19:19 | -12.26785 | -38.95205 | 36031 ft | 447 kts | 215° |
| 2026-04-28 19:20 | -12.31735 | -38.98997 | 36033 ft | 447 kts | 216° |
| 2026-04-28 19:20 | -12.36715 | -39.02817 | 36033 ft | 447 kts | 216° |
| 2026-04-28 19:21 | -12.41700 | -39.06638 | 36031 ft | 447 kts | 216° |
| 2026-04-28 19:21 | -12.46686 | -39.10459 | 36032 ft | 447 kts | 216° |
| 2026-04-28 19:22 | -12.50829 | -39.13639 | 36033 ft | 447 kts | 216° |
| 2026-04-28 19:22 | -12.56646 | -39.18108 | 36033 ft | 447 kts | 216° |
| 2026-04-28 19:23 | -12.61582 | -39.21906 | 36034 ft | 447 kts | 216° |
| 2026-04-28 19:23 | -12.66545 | -39.25734 | 36034 ft | 447 kts | 216° |
| 2026-04-28 19:24 | -12.71474 | -39.29615 | 36037 ft | 447 kts | 217° |
| 2026-04-28 19:24 | -12.76378 | -39.33524 | 36034 ft | 447 kts | 217° |
| 2026-04-28 19:25 | -12.81288 | -39.37424 | 36035 ft | 446 kts | 217° |
| 2026-04-28 19:25 | -12.86209 | -39.41317 | 36040 ft | 446 kts | 217° |
| 2026-04-28 19:26 | -12.91122 | -39.45208 | 36043 ft | 446 kts | 217° |
| 2026-04-28 19:26 | -12.96034 | -39.49098 | 36042 ft | 446 kts | 217° |
| 2026-04-28 19:27 | -13.00937 | -39.52986 | 36046 ft | 446 kts | 217° |
| 2026-04-28 19:27 | -13.05843 | -39.56881 | 36047 ft | 445 kts | 217° |
| 2026-04-28 19:28 | -13.10735 | -39.60770 | 36055 ft | 445 kts | 217° |
| 2026-04-28 19:28 | -13.15629 | -39.64653 | 36057 ft | 444 kts | 217° |
| 2026-04-28 19:29 | -13.19696 | -39.67881 | 36060 ft | 444 kts | 217° |
| 2026-04-28 19:29 | -13.25371 | -39.72400 | 36060 ft | 444 kts | 217° |
| 2026-04-28 19:30 | -13.30255 | -39.76285 | 36067 ft | 443 kts | 217° |
| 2026-04-28 19:30 | -13.35157 | -39.80138 | 36067 ft | 443 kts | 217° |
| 2026-04-28 19:31 | -13.40056 | -39.83970 | 36073 ft | 442 kts | 217° |
| 2026-04-28 19:31 | -13.44945 | -39.87808 | 36069 ft | 442 kts | 217° |
| 2026-04-28 19:32 | -13.49821 | -39.91651 | 36061 ft | 442 kts | 217° |
| 2026-04-28 19:32 | -13.54692 | -39.95490 | 36068 ft | 441 kts | 217° |
| 2026-04-28 19:33 | -13.59567 | -39.99336 | 36061 ft | 441 kts | 217° |
| 2026-04-28 19:33 | -13.64424 | -40.03183 | 36064 ft | 441 kts | 217° |
| 2026-04-28 19:34 | -13.69275 | -40.07032 | 36054 ft | 440 kts | 217° |
| 2026-04-28 19:34 | -13.74126 | -40.10882 | 36053 ft | 440 kts | 217° |
| 2026-04-28 19:35 | -13.78947 | -40.14705 | 36056 ft | 440 kts | 218° |
| 2026-04-28 19:35 | -13.83791 | -40.18564 | 36053 ft | 440 kts | 218° |
| 2026-04-28 19:36 | -13.88627 | -40.22411 | 36049 ft | 440 kts | 218° |
| 2026-04-28 19:36 | -13.93463 | -40.26261 | 36048 ft | 439 kts | 218° |
| 2026-04-28 19:37 | -13.97485 | -40.29460 | 36045 ft | 439 kts | 218° |
| 2026-04-28 19:37 | -14.03140 | -40.33958 | 36046 ft | 439 kts | 218° |
| 2026-04-28 19:38 | -14.07972 | -40.37806 | 36046 ft | 439 kts | 218° |
| 2026-04-28 19:38 | -14.12810 | -40.41660 | 36038 ft | 439 kts | 218° |
| 2026-04-28 19:39 | -14.17644 | -40.45514 | 36045 ft | 439 kts | 218° |
| 2026-04-28 19:39 | -14.22475 | -40.49365 | 36023 ft | 439 kts | 218° |
| 2026-04-28 19:40 | -14.27308 | -40.53228 | 36029 ft | 439 kts | 218° |
| 2026-04-28 19:40 | -14.32137 | -40.57091 | 36025 ft | 439 kts | 219° |
| 2026-04-28 19:41 | -14.36934 | -40.60927 | 36025 ft | 439 kts | 219° |
| 2026-04-28 19:41 | -14.41756 | -40.64787 | 36035 ft | 439 kts | 218° |
| 2026-04-28 19:42 | -14.46576 | -40.68652 | 36025 ft | 439 kts | 219° |
| 2026-04-28 19:42 | -14.50618 | -40.71884 | 36033 ft | 439 kts | 218° |
| 2026-04-28 19:43 | -14.56223 | -40.76371 | 36024 ft | 439 kts | 218° |
| 2026-04-28 19:43 | -14.61051 | -40.80240 | 36030 ft | 439 kts | 219° |
| 2026-04-28 19:44 | -14.65066 | -40.83467 | 36024 ft | 439 kts | 219° |
| 2026-04-28 19:44 | -14.69890 | -40.87343 | 36029 ft | 439 kts | 219° |
| 2026-04-28 19:45 | -14.74712 | -40.91209 | 36028 ft | 439 kts | 219° |
| 2026-04-28 19:45 | -14.79539 | -40.95076 | 36022 ft | 439 kts | 219° |
| 2026-04-28 19:46 | -14.84363 | -40.98959 | 36019 ft | 440 kts | 218° |
| 2026-04-28 19:46 | -14.89162 | -41.02816 | 36028 ft | 440 kts | 219° |
| 2026-04-28 19:47 | -14.94022 | -41.06733 | 36029 ft | 440 kts | 219° |
| 2026-04-28 19:47 | -14.98845 | -41.10624 | 36033 ft | 440 kts | 219° |
| 2026-04-28 19:48 | -15.03644 | -41.14498 | 36037 ft | 440 kts | 219° |
| 2026-04-28 19:48 | -15.08470 | -41.18380 | 36035 ft | 440 kts | 218° |
| 2026-04-28 19:49 | -15.13300 | -41.22275 | 36037 ft | 440 kts | 220° |
| 2026-04-28 19:49 | -15.18125 | -41.26177 | 36035 ft | 440 kts | 219° |
| 2026-04-28 19:50 | -15.25365 | -41.32032 | 36041 ft | 440 kts | 220° |
| 2026-04-28 19:51 | -15.30195 | -41.35927 | 36038 ft | 440 kts | 219° |
| 2026-04-28 19:51 | -15.34998 | -41.39800 | 36044 ft | 440 kts | 219° |
| 2026-04-28 19:52 | -15.39816 | -41.43713 | 36041 ft | 440 kts | 219° |
| 2026-04-28 19:52 | -15.44639 | -41.47625 | 36042 ft | 440 kts | 219° |
| 2026-04-28 19:53 | -15.49466 | -41.51525 | 36044 ft | 440 kts | 219° |
| 2026-04-28 19:53 | -15.54293 | -41.55435 | 36044 ft | 440 kts | 219° |
| 2026-04-28 19:54 | -15.59111 | -41.59347 | 36045 ft | 440 kts | 219° |
| 2026-04-28 19:54 | -15.63929 | -41.63268 | 36047 ft | 440 kts | 218° |
| 2026-04-28 19:55 | -15.68744 | -41.67175 | 36047 ft | 439 kts | 219° |
| 2026-04-28 19:55 | -15.73558 | -41.71081 | 36044 ft | 439 kts | 219° |
| 2026-04-28 19:56 | -15.78363 | -41.74993 | 36048 ft | 439 kts | 219° |
| 2026-04-28 19:56 | -15.83176 | -41.78911 | 36048 ft | 439 kts | 219° |
| 2026-04-28 19:57 | -15.87981 | -41.82821 | 36045 ft | 439 kts | 220° |
| 2026-04-28 19:57 | -15.92776 | -41.86733 | 36040 ft | 438 kts | 219° |
| 2026-04-28 19:58 | -15.97569 | -41.90653 | 36037 ft | 438 kts | 220° |
| 2026-04-28 19:58 | -16.02363 | -41.94571 | 36030 ft | 438 kts | 219° |
| 2026-04-28 19:59 | -16.07159 | -41.98478 | 36035 ft | 438 kts | 219° |
| 2026-04-28 19:59 | -16.11951 | -42.02391 | 36028 ft | 438 kts | 220° |
| 2026-04-28 20:00 | -16.16749 | -42.06313 | 36023 ft | 438 kts | 219° |
| 2026-04-28 20:00 | -16.21551 | -42.10231 | 36023 ft | 439 kts | 220° |
| 2026-04-28 20:01 | -16.26317 | -42.14130 | 36019 ft | 439 kts | 219° |
| 2026-04-28 20:01 | -16.31116 | -42.18062 | 36019 ft | 439 kts | 219° |
| 2026-04-28 20:02 | -16.35911 | -42.21991 | 36012 ft | 439 kts | 219° |
| 2026-04-28 20:02 | -16.40708 | -42.25937 | 36011 ft | 439 kts | 219° |
| 2026-04-28 20:03 | -16.45508 | -42.29878 | 36010 ft | 439 kts | 220° |
| 2026-04-28 20:03 | -16.50304 | -42.33818 | 36011 ft | 439 kts | 219° |
| 2026-04-28 20:04 | -16.55108 | -42.37764 | 36011 ft | 439 kts | 220° |
| 2026-04-28 20:04 | -16.59907 | -42.41712 | 36011 ft | 439 kts | 219° |
| 2026-04-28 20:05 | -16.64704 | -42.45677 | 36014 ft | 439 kts | 220° |
| 2026-04-28 20:05 | -16.69468 | -42.49615 | 36011 ft | 440 kts | 220° |
| 2026-04-28 20:06 | -16.74303 | -42.53588 | 36014 ft | 440 kts | 219° |
| 2026-04-28 20:06 | -16.79073 | -42.57514 | 36014 ft | 440 kts | 219° |
| 2026-04-28 20:07 | -16.83878 | -42.61485 | 36019 ft | 440 kts | 219° |
| 2026-04-28 20:07 | -16.88672 | -42.65443 | 36017 ft | 440 kts | 219° |
| 2026-04-28 20:08 | -16.93482 | -42.69411 | 36018 ft | 440 kts | 219° |
| 2026-04-28 20:08 | -16.98285 | -42.73369 | 36023 ft | 440 kts | 220° |
| 2026-04-28 20:09 | -17.03078 | -42.77340 | 36023 ft | 440 kts | 220° |
| 2026-04-28 20:09 | -17.07875 | -42.81315 | 36028 ft | 439 kts | 220° |
| 2026-04-28 20:10 | -17.12663 | -42.85289 | 36030 ft | 439 kts | 220° |
| 2026-04-28 20:10 | -17.17450 | -42.89262 | 36034 ft | 439 kts | 220° |
| 2026-04-28 20:11 | -17.22237 | -42.93231 | 36035 ft | 439 kts | 220° |
| 2026-04-28 20:11 | -17.27032 | -42.97200 | 36039 ft | 439 kts | 220° |
| 2026-04-28 20:12 | -17.31822 | -43.01171 | 36036 ft | 439 kts | 220° |
| 2026-04-28 20:12 | -17.36571 | -43.05131 | 36039 ft | 439 kts | 220° |
| 2026-04-28 20:13 | -17.41382 | -43.09141 | 36035 ft | 439 kts | 220° |
| 2026-04-28 20:13 | -17.46136 | -43.13090 | 36034 ft | 439 kts | 220° |
| 2026-04-28 20:14 | -17.50951 | -43.17100 | 36037 ft | 439 kts | 220° |
| 2026-04-28 20:14 | -17.55730 | -43.21083 | 36038 ft | 439 kts | 220° |
| 2026-04-28 20:15 | -17.60506 | -43.25065 | 36041 ft | 439 kts | 220° |
| 2026-04-28 20:15 | -17.65254 | -43.29028 | 36038 ft | 439 kts | 220° |
| 2026-04-28 20:16 | -17.70024 | -43.33016 | 36043 ft | 438 kts | 220° |
| 2026-04-28 20:16 | -17.74797 | -43.36998 | 36047 ft | 438 kts | 220° |
| 2026-04-28 20:17 | -17.79562 | -43.40989 | 36041 ft | 438 kts | 220° |
| 2026-04-28 20:17 | -17.84330 | -43.44982 | 36049 ft | 438 kts | 220° |
| 2026-04-28 20:18 | -17.89099 | -43.48979 | 36051 ft | 438 kts | 220° |
| 2026-04-28 20:18 | -17.93877 | -43.52977 | 36058 ft | 438 kts | 220° |
| 2026-04-28 20:19 | -17.98644 | -43.56970 | 36062 ft | 439 kts | 220° |
| 2026-04-28 20:19 | -18.03410 | -43.60977 | 36061 ft | 439 kts | 220° |
| 2026-04-28 20:20 | -18.08143 | -43.64957 | 36068 ft | 439 kts | 220° |
| 2026-04-28 20:20 | -18.12944 | -43.68982 | 36067 ft | 438 kts | 220° |
| 2026-04-28 20:21 | -18.17670 | -43.72967 | 36074 ft | 438 kts | 220° |
| 2026-04-28 20:21 | -18.22429 | -43.76977 | 36068 ft | 438 kts | 220° |
| 2026-04-28 20:22 | -18.27190 | -43.80987 | 36068 ft | 438 kts | 220° |
| 2026-04-28 20:22 | -18.31945 | -43.85003 | 36061 ft | 438 kts | 220° |
| 2026-04-28 20:23 | -18.36701 | -43.89021 | 36062 ft | 438 kts | 220° |
| 2026-04-28 20:23 | -18.41456 | -43.93035 | 36050 ft | 438 kts | 220° |
| 2026-04-28 20:24 | -18.46209 | -43.97040 | 36052 ft | 438 kts | 220° |
| 2026-04-28 20:24 | -18.50964 | -44.01051 | 36037 ft | 437 kts | 220° |
| 2026-04-28 20:25 | -18.55712 | -44.05065 | 36041 ft | 437 kts | 220° |
| 2026-04-28 20:25 | -18.60451 | -44.09080 | 36034 ft | 437 kts | 220° |
| 2026-04-28 20:26 | -18.65186 | -44.13097 | 36030 ft | 436 kts | 220° |
| 2026-04-28 20:26 | -18.69918 | -44.17109 | 36024 ft | 436 kts | 220° |
| 2026-04-28 20:27 | -18.74619 | -44.21091 | 36026 ft | 436 kts | 220° |
| 2026-04-28 20:27 | -18.79351 | -44.25106 | 36024 ft | 436 kts | 220° |
| 2026-04-28 20:28 | -18.84073 | -44.29120 | 36021 ft | 436 kts | 221° |
| 2026-04-28 20:28 | -18.88791 | -44.33144 | 36021 ft | 436 kts | 221° |
| 2026-04-28 20:29 | -18.93512 | -44.37168 | 36021 ft | 436 kts | 221° |
| 2026-04-28 20:29 | -18.97434 | -44.40515 | 36027 ft | 435 kts | 221° |
| 2026-04-28 20:30 | -19.02143 | -44.44534 | 36032 ft | 435 kts | 221° |
| 2026-04-28 20:30 | -19.06856 | -44.48544 | 36026 ft | 435 kts | 221° |
| 2026-04-28 20:31 | -19.11568 | -44.52562 | 36033 ft | 435 kts | 221° |
| 2026-04-28 20:31 | -19.16266 | -44.56585 | 36028 ft | 434 kts | 221° |
| 2026-04-28 20:32 | -19.20966 | -44.60604 | 36034 ft | 434 kts | 221° |
| 2026-04-28 20:32 | -19.25663 | -44.64623 | 36032 ft | 434 kts | 221° |
| 2026-04-28 20:33 | -19.30360 | -44.68644 | 36031 ft | 434 kts | 221° |
| 2026-04-28 20:33 | -19.35056 | -44.72663 | 36031 ft | 434 kts | 221° |
| 2026-04-28 20:34 | -19.39714 | -44.76661 | 36027 ft | 434 kts | 221° |
| 2026-04-28 20:34 | -19.44399 | -44.80691 | 36027 ft | 434 kts | 221° |
| 2026-04-28 20:35 | -19.49090 | -44.84716 | 36027 ft | 433 kts | 221° |
| 2026-04-28 20:35 | -19.53770 | -44.88743 | 36027 ft | 433 kts | 222° |
| 2026-04-28 20:36 | -19.58447 | -44.92773 | 36032 ft | 433 kts | 222° |
| 2026-04-28 20:36 | -19.63117 | -44.96803 | 36036 ft | 432 kts | 222° |
| 2026-04-28 20:37 | -19.67781 | -45.00832 | 36032 ft | 432 kts | 222° |
| 2026-04-28 20:37 | -19.72447 | -45.04863 | 36032 ft | 432 kts | 222° |
| 2026-04-28 20:38 | -19.77104 | -45.08900 | 36036 ft | 432 kts | 222° |
| 2026-04-28 20:38 | -19.81759 | -45.12938 | 36037 ft | 431 kts | 222° |
| 2026-04-28 20:39 | -19.86378 | -45.16940 | 36038 ft | 431 kts | 222° |
| 2026-04-28 20:39 | -19.91058 | -45.20983 | 36034 ft | 431 kts | 222° |
| 2026-04-28 20:40 | -19.95702 | -45.25008 | 36033 ft | 431 kts | 222° |
| 2026-04-28 20:40 | -20.00307 | -45.29017 | 36030 ft | 431 kts | 222° |
| 2026-04-28 20:41 | -20.04949 | -45.33046 | 36030 ft | 431 kts | 222° |
| 2026-04-28 20:41 | -20.09592 | -45.37079 | 36036 ft | 430 kts | 222° |
| 2026-04-28 20:42 | -20.14222 | -45.41109 | 36040 ft | 430 kts | 223° |
| 2026-04-28 20:42 | -20.18849 | -45.45145 | 36037 ft | 430 kts | 223° |
| 2026-04-28 20:43 | -20.23469 | -45.49175 | 36032 ft | 429 kts | 223° |
| 2026-04-28 20:43 | -20.28086 | -45.53205 | 36031 ft | 429 kts | 223° |
| 2026-04-28 20:44 | -20.32713 | -45.57243 | 36034 ft | 429 kts | 223° |
| 2026-04-28 20:44 | -20.37328 | -45.61274 | 36031 ft | 429 kts | 223° |
| 2026-04-28 20:45 | -20.41934 | -45.65319 | 36038 ft | 429 kts | 223° |
| 2026-04-28 20:45 | -20.46540 | -45.69353 | 36036 ft | 428 kts | 223° |
| 2026-04-28 20:46 | -20.51152 | -45.73385 | 36034 ft | 428 kts | 223° |
| 2026-04-28 20:46 | -20.55755 | -45.77409 | 36036 ft | 428 kts | 223° |
| 2026-04-28 20:47 | -20.60346 | -45.81455 | 36032 ft | 428 kts | 223° |
| 2026-04-28 20:47 | -20.64908 | -45.85472 | 36027 ft | 427 kts | 223° |
| 2026-04-28 20:48 | -20.69502 | -45.89515 | 36025 ft | 428 kts | 223° |
| 2026-04-28 20:48 | -20.74099 | -45.93554 | 36032 ft | 427 kts | 224° |
| 2026-04-28 20:49 | -20.78694 | -45.97597 | 36036 ft | 427 kts | 224° |
| 2026-04-28 20:49 | -20.83276 | -46.01634 | 36037 ft | 427 kts | 224° |
| 2026-04-28 20:50 | -20.87865 | -46.05680 | 36032 ft | 427 kts | 224° |
| 2026-04-28 20:50 | -20.92450 | -46.09727 | 36034 ft | 427 kts | 224° |
| 2026-04-28 20:51 | -20.97156 | -46.13619 | 36014 ft | 431 kts | 215° |
| 2026-04-28 20:51 | -21.02743 | -46.16118 | 36020 ft | 439 kts | 203° |
| 2026-04-28 20:52 | -21.08550 | -46.18169 | 36032 ft | 439 kts | 203° |
| 2026-04-28 20:52 | -21.14313 | -46.20226 | 36024 ft | 439 kts | 204° |
| 2026-04-28 20:53 | -21.23054 | -46.23261 | 36027 ft | 440 kts | 202° |
| 2026-04-28 20:53 | -21.28908 | -46.25212 | 36030 ft | 440 kts | 202° |
| 2026-04-28 20:54 | -21.34754 | -46.27187 | 36029 ft | 440 kts | 202° |
| 2026-04-28 20:54 | -21.40589 | -46.29181 | 36027 ft | 440 kts | 202° |
| 2026-04-28 20:55 | -21.46426 | -46.31179 | 36029 ft | 440 kts | 202° |
| 2026-04-28 20:55 | -21.52267 | -46.33173 | 36031 ft | 440 kts | 202° |
| 2026-04-28 20:56 | -21.58108 | -46.35163 | 36027 ft | 440 kts | 202° |
| 2026-04-28 20:56 | -21.63954 | -46.37157 | 36052 ft | 440 kts | 203° |
| 2026-04-28 20:57 | -21.69774 | -46.39194 | 36057 ft | 439 kts | 204° |
| 2026-04-28 20:57 | -21.75557 | -46.41339 | 36051 ft | 439 kts | 204° |
| 2026-04-28 20:58 | -21.81328 | -46.43495 | 36051 ft | 439 kts | 204° |
| 2026-04-28 20:58 | -21.87114 | -46.45629 | 36063 ft | 440 kts | 204° |
| 2026-04-28 20:59 | -21.92919 | -46.47756 | 36036 ft | 442 kts | 204° |
| 2026-04-28 20:59 | -21.98752 | -46.49899 | 35801 ft | 444 kts | 204° |
| 2026-04-28 21:00 | -22.01700 | -46.50987 | 34736 ft | 450 kts | 204° |
| 2026-04-28 21:00 | -22.04629 | -46.52070 | 33633 ft | 450 kts | 204° |
| 2026-04-28 21:00 | -22.07590 | -46.53160 | 32558 ft | 448 kts | 204° |
| 2026-04-28 21:00 | -22.10519 | -46.54233 | 31781 ft | 439 kts | 204° |
| 2026-04-28 21:01 | -22.13389 | -46.55282 | 31310 ft | 433 kts | 204° |
| 2026-04-28 21:01 | -22.16238 | -46.56333 | 30783 ft | 432 kts | 205° |
| 2026-04-28 21:01 | -22.19075 | -46.57386 | 30286 ft | 430 kts | 205° |
| 2026-04-28 21:01 | -22.21897 | -46.58436 | 29737 ft | 427 kts | 205° |
| 2026-04-28 21:02 | -22.24688 | -46.59470 | 29271 ft | 420 kts | 205° |
| 2026-04-28 21:02 | -22.27442 | -46.60485 | 28797 ft | 416 kts | 204° |
| 2026-04-28 21:02 | -22.30164 | -46.61488 | 28345 ft | 411 kts | 205° |
| 2026-04-28 21:02 | -22.32859 | -46.62485 | 27896 ft | 407 kts | 204° |
| 2026-04-28 21:03 | -22.35530 | -46.63475 | 27438 ft | 404 kts | 204° |
| 2026-04-28 21:03 | -22.38178 | -46.64459 | 26979 ft | 401 kts | 204° |
| 2026-04-28 21:03 | -22.40735 | -46.65573 | 26533 ft | 391 kts | 213° |
| 2026-04-28 21:03 | -22.43000 | -46.67122 | 26091 ft | 381 kts | 224° |
| 2026-04-28 21:04 | -22.44959 | -46.69004 | 25644 ft | 374 kts | 229° |
| 2026-04-28 21:04 | -22.46853 | -46.70920 | 25203 ft | 372 kts | 228° |
| 2026-04-28 21:04 | -22.48743 | -46.72829 | 24745 ft | 371 kts | 228° |
| 2026-04-28 21:04 | -22.50627 | -46.74730 | 24261 ft | 371 kts | 228° |
| 2026-04-28 21:05 | -22.52514 | -46.76633 | 23780 ft | 371 kts | 228° |
| 2026-04-28 21:05 | -22.54398 | -46.78536 | 23258 ft | 370 kts | 228° |
| 2026-04-28 21:05 | -22.56272 | -46.80430 | 22850 ft | 366 kts | 228° |
| 2026-04-28 21:05 | -22.58114 | -46.82287 | 22731 ft | 360 kts | 228° |
| 2026-04-28 21:06 | -22.59935 | -46.84125 | 22565 ft | 357 kts | 228° |
| 2026-04-28 21:06 | -22.61748 | -46.85958 | 22385 ft | 356 kts | 228° |
| 2026-04-28 21:06 | -22.63549 | -46.87785 | 22213 ft | 355 kts | 229° |
| 2026-04-28 21:06 | -22.65345 | -46.89610 | 22021 ft | 354 kts | 228° |
| 2026-04-28 21:07 | -22.67147 | -46.91420 | 21856 ft | 354 kts | 225° |
| 2026-04-28 21:07 | -22.68456 | -46.92486 | 21734 ft | 357 kts | 218° |
| 2026-04-28 21:07 | -22.71268 | -46.94402 | 21502 ft | 357 kts | 217° |
| 2026-04-28 21:07 | -22.73346 | -46.95813 | 21326 ft | 356 kts | 217° |
| 2026-04-28 21:08 | -22.75438 | -46.97232 | 21156 ft | 354 kts | 217° |
| 2026-04-28 21:08 | -22.77519 | -46.98645 | 20977 ft | 352 kts | 217° |
| 2026-04-28 21:08 | -22.79588 | -47.00052 | 20805 ft | 351 kts | 217° |
| 2026-04-28 21:08 | -22.81655 | -47.01460 | 20630 ft | 350 kts | 217° |
| 2026-04-28 21:09 | -22.83717 | -47.02868 | 20462 ft | 349 kts | 217° |
| 2026-04-28 21:09 | -22.85770 | -47.04272 | 20291 ft | 349 kts | 217° |
| 2026-04-28 21:09 | -22.87820 | -47.05674 | 20116 ft | 348 kts | 217° |
| 2026-04-28 21:09 | -22.89869 | -47.07076 | 19737 ft | 350 kts | 217° |
| 2026-04-28 21:10 | -22.91943 | -47.08485 | 19232 ft | 353 kts | 217° |
| 2026-04-28 21:10 | -22.94035 | -47.09899 | 18732 ft | 355 kts | 217° |
| 2026-04-28 21:10 | -22.96135 | -47.11319 | 18220 ft | 357 kts | 216° |
| 2026-04-28 21:10 | -22.98248 | -47.12749 | 17690 ft | 357 kts | 216° |
| 2026-04-28 21:11 | -23.00416 | -47.14081 | 17190 ft | 361 kts | 207° |
| 2026-04-28 21:11 | -23.02834 | -47.14844 | 16682 ft | 366 kts | 191° |
| 2026-04-28 21:11 | -23.05383 | -47.14896 | 16294 ft | 368 kts | 176° |
| 2026-04-28 21:11 | -23.07915 | -47.14394 | 15863 ft | 368 kts | 170° |
| 2026-04-28 21:12 | -23.09566 | -47.14026 | 15642 ft | 365 kts | 170° |
| 2026-04-28 21:12 | -23.12052 | -47.13473 | 15253 ft | 363 kts | 170° |
| 2026-04-28 21:12 | -23.14517 | -47.12924 | 14885 ft | 360 kts | 170° |
| 2026-04-28 21:12 | -23.16960 | -47.12383 | 14395 ft | 355 kts | 170° |
| 2026-04-28 21:13 | -23.19365 | -47.11851 | 13706 ft | 351 kts | 170° |
| 2026-04-28 21:13 | -23.21746 | -47.11326 | 12949 ft | 347 kts | 170° |
| 2026-04-28 21:13 | -23.24115 | -47.10804 | 12336 ft | 347 kts | 169° |
| 2026-04-28 21:13 | -23.26469 | -47.10285 | 11929 ft | 346 kts | 170° |
| 2026-04-28 21:14 | -23.28822 | -47.09768 | 11567 ft | 343 kts | 170° |
| 2026-04-28 21:14 | -23.31167 | -47.09255 | 11122 ft | 343 kts | 170° |
| 2026-04-28 21:14 | -23.33505 | -47.08745 | 10677 ft | 343 kts | 170° |
| 2026-04-28 21:14 | -23.35833 | -47.08237 | 10383 ft | 338 kts | 170° |
| 2026-04-28 21:15 | -23.38136 | -47.07731 | 10025 ft | 336 kts | 170° |
| 2026-04-28 21:15 | -23.40324 | -47.06942 | 9860 ft | 328 kts | 152° |
| 2026-04-28 21:15 | -23.42113 | -47.05476 | 9612 ft | 320 kts | 131° |
| 2026-04-28 21:15 | -23.43335 | -47.03498 | 9181 ft | 311 kts | 111° |